sensor_id;sensor_type;location;lat;lon;timestamp;P1;durP1;ratioP1;P2;durP2;ratioP2
20861;SDS011;10591;52.532;13.348;2022-12-18T00:02:02;42.60;;;16.63;;
20861;SDS011;10591;52.532;13.348;2022-12-18T00:04:35;38.13;;;15.30;;
20861;SDS011;10591;52.532;13.348;2022-12-18T00:07:08;40.27;;;17.20;;
20861;SDS011;10591;52.532;13.348;2022-12-18T00:09:38;42.93;;;16.70;;
20861;SDS011;10591;52.532;13.348;2022-12-18T00:12:09;39.70;;;15.17;;
20861;SDS011;10591;52.532;13.348;2022-12-18T00:14:44;43.40;;;16.07;;
20861;SDS011;10591;52.532;13.348;2022-12-18T00:17:15;48.00;;;16.43;;
20861;SDS011;10591;52.532;13.348;2022-12-18T00:19:46;42.60;;;16.80;;
20861;SDS011;10591;52.532;13.348;2022-12-18T00:22:17;40.93;;;17.13;;
20861;SDS011;10591;52.532;13.348;2022-12-18T00:24:48;40.83;;;15.73;;
20861;SDS011;10591;52.532;13.348;2022-12-18T00:27:19;45.30;;;16.03;;
20861;SDS011;10591;52.532;13.348;2022-12-18T00:29:51;41.77;;;15.90;;
20861;SDS011;10591;52.532;13.348;2022-12-18T00:32:22;37.17;;;13.93;;
20861;SDS011;10591;52.532;13.348;2022-12-18T00:34:53;38.57;;;15.50;;
20861;SDS011;10591;52.532;13.348;2022-12-18T00:37:25;39.43;;;13.93;;
20861;SDS011;10591;52.532;13.348;2022-12-18T00:39:57;40.23;;;14.63;;
20861;SDS011;10591;52.532;13.348;2022-12-18T00:42:28;36.77;;;14.10;;
20861;SDS011;10591;52.532;13.348;2022-12-18T00:45:16;35.07;;;14.57;;
20861;SDS011;10591;52.532;13.348;2022-12-18T00:47:47;38.90;;;15.17;;
20861;SDS011;10591;52.532;13.348;2022-12-18T00:50:18;36.87;;;15.17;;
20861;SDS011;10591;52.532;13.348;2022-12-18T00:52:49;40.17;;;15.40;;
20861;SDS011;10591;52.532;13.348;2022-12-18T00:55:20;46.53;;;16.53;;
20861;SDS011;10591;52.532;13.348;2022-12-18T00:57:51;44.20;;;17.37;;
20861;SDS011;10591;52.532;13.348;2022-12-18T01:00:22;39.33;;;16.43;;
20861;SDS011;10591;52.532;13.348;2022-12-18T01:02:54;38.90;;;16.00;;
20861;SDS011;10591;52.532;13.348;2022-12-18T01:05:25;37.37;;;15.93;;
20861;SDS011;10591;52.532;13.348;2022-12-18T01:07:57;44.03;;;15.37;;
20861;SDS011;10591;52.532;13.348;2022-12-18T01:10:28;41.43;;;16.80;;
20861;SDS011;10591;52.532;13.348;2022-12-18T01:13:00;38.23;;;15.43;;
20861;SDS011;10591;52.532;13.348;2022-12-18T01:15:31;34.90;;;14.43;;
20861;SDS011;10591;52.532;13.348;2022-12-18T01:18:13;39.33;;;14.17;;
20861;SDS011;10591;52.532;13.348;2022-12-18T01:20:44;39.67;;;15.13;;
20861;SDS011;10591;52.532;13.348;2022-12-18T01:23:16;38.37;;;15.17;;
20861;SDS011;10591;52.532;13.348;2022-12-18T01:25:47;38.27;;;15.10;;
20861;SDS011;10591;52.532;13.348;2022-12-18T01:28:18;34.73;;;13.93;;
20861;SDS011;10591;52.532;13.348;2022-12-18T01:30:48;30.57;;;13.30;;
20861;SDS011;10591;52.532;13.348;2022-12-18T01:33:20;39.57;;;14.57;;
20861;SDS011;10591;52.532;13.348;2022-12-18T01:35:51;42.40;;;15.50;;
20861;SDS011;10591;52.532;13.348;2022-12-18T01:38:25;47.43;;;16.60;;
20861;SDS011;10591;52.532;13.348;2022-12-18T01:41:00;41.63;;;14.07;;
20861;SDS011;10591;52.532;13.348;2022-12-18T01:46:17;41.60;;;16.40;;
20861;SDS011;10591;52.532;13.348;2022-12-18T01:48:51;42.60;;;16.07;;
20861;SDS011;10591;52.532;13.348;2022-12-18T01:51:29;37.20;;;14.70;;
20861;SDS011;10591;52.532;13.348;2022-12-18T01:54:04;44.27;;;16.70;;
20861;SDS011;10591;52.532;13.348;2022-12-18T01:56:35;42.67;;;15.47;;
20861;SDS011;10591;52.532;13.348;2022-12-18T01:59:06;39.90;;;15.83;;
20861;SDS011;10591;52.532;13.348;2022-12-18T02:01:39;46.53;;;16.43;;
20861;SDS011;10591;52.532;13.348;2022-12-18T02:04:21;39.67;;;14.60;;
20861;SDS011;10591;52.532;13.348;2022-12-18T02:06:59;46.50;;;16.97;;
20861;SDS011;10591;52.532;13.348;2022-12-18T02:09:33;41.00;;;15.50;;
20861;SDS011;10591;52.532;13.348;2022-12-18T02:12:25;48.10;;;15.90;;
20861;SDS011;10591;52.532;13.348;2022-12-18T02:17:44;49.87;;;17.33;;
20861;SDS011;10591;52.532;13.348;2022-12-18T02:20:16;45.97;;;15.07;;
20861;SDS011;10591;52.532;13.348;2022-12-18T02:28:15;46.73;;;16.63;;
20861;SDS011;10591;52.532;13.348;2022-12-18T02:30:49;44.07;;;16.47;;
20861;SDS011;10591;52.532;13.348;2022-12-18T02:33:26;42.73;;;14.70;;
20861;SDS011;10591;52.532;13.348;2022-12-18T02:35:59;44.67;;;17.53;;
20861;SDS011;10591;52.532;13.348;2022-12-18T02:38:31;38.83;;;15.83;;
20861;SDS011;10591;52.532;13.348;2022-12-18T02:41:04;43.33;;;16.40;;
20861;SDS011;10591;52.532;13.348;2022-12-18T02:43:39;41.03;;;15.10;;
20861;SDS011;10591;52.532;13.348;2022-12-18T02:51:47;45.60;;;16.57;;
20861;SDS011;10591;52.532;13.348;2022-12-18T02:54:23;41.47;;;16.20;;
20861;SDS011;10591;52.532;13.348;2022-12-18T02:56:51;43.17;;;14.77;;
20861;SDS011;10591;52.532;13.348;2022-12-18T02:59:31;44.97;;;15.20;;
20861;SDS011;10591;52.532;13.348;2022-12-18T03:02:55;45.00;;;16.27;;
20861;SDS011;10591;52.532;13.348;2022-12-18T03:04:50;37.67;;;14.93;;
20861;SDS011;10591;52.532;13.348;2022-12-18T03:07:27;43.03;;;16.23;;
20861;SDS011;10591;52.532;13.348;2022-12-18T03:10:00;42.33;;;16.23;;
20861;SDS011;10591;52.532;13.348;2022-12-18T03:12:32;40.63;;;15.47;;
20861;SDS011;10591;52.532;13.348;2022-12-18T03:15:16;40.77;;;15.17;;
20861;SDS011;10591;52.532;13.348;2022-12-18T03:17:59;38.77;;;14.50;;
20861;SDS011;10591;52.532;13.348;2022-12-18T03:20:34;44.77;;;15.97;;
20861;SDS011;10591;52.532;13.348;2022-12-18T03:23:08;41.87;;;16.67;;
20861;SDS011;10591;52.532;13.348;2022-12-18T03:25:44;39.77;;;15.70;;
20861;SDS011;10591;52.532;13.348;2022-12-18T03:28:16;58.13;;;17.70;;
20861;SDS011;10591;52.532;13.348;2022-12-18T03:30:50;55.17;;;17.20;;
20861;SDS011;10591;52.532;13.348;2022-12-18T03:33:27;47.77;;;17.17;;
20861;SDS011;10591;52.532;13.348;2022-12-18T03:36:00;47.60;;;18.37;;
20861;SDS011;10591;52.532;13.348;2022-12-18T03:38:31;52.70;;;18.40;;
20861;SDS011;10591;52.532;13.348;2022-12-18T03:41:10;31.40;;;12.70;;
20861;SDS011;10591;52.532;13.348;2022-12-18T03:46:33;53.33;;;17.37;;
20861;SDS011;10591;52.532;13.348;2022-12-18T03:49:53;45.10;;;16.17;;
20861;SDS011;10591;52.532;13.348;2022-12-18T03:51:45;45.60;;;15.70;;
20861;SDS011;10591;52.532;13.348;2022-12-18T03:54:23;47.63;;;16.83;;
20861;SDS011;10591;52.532;13.348;2022-12-18T03:56:59;58.67;;;20.37;;
20861;SDS011;10591;52.532;13.348;2022-12-18T03:59:35;58.63;;;19.70;;
20861;SDS011;10591;52.532;13.348;2022-12-18T04:02:08;65.60;;;19.60;;
20861;SDS011;10591;52.532;13.348;2022-12-18T04:04:42;59.27;;;19.70;;
20861;SDS011;10591;52.532;13.348;2022-12-18T04:07:15;59.10;;;19.80;;
20861;SDS011;10591;52.532;13.348;2022-12-18T04:09:48;59.70;;;19.80;;
20861;SDS011;10591;52.532;13.348;2022-12-18T04:12:20;63.80;;;19.00;;
20861;SDS011;10591;52.532;13.348;2022-12-18T04:14:52;60.07;;;21.37;;
20861;SDS011;10591;52.532;13.348;2022-12-18T04:17:23;66.40;;;20.93;;
20861;SDS011;10591;52.532;13.348;2022-12-18T04:19:53;59.90;;;20.37;;
20861;SDS011;10591;52.532;13.348;2022-12-18T04:22:25;63.90;;;20.47;;
20861;SDS011;10591;52.532;13.348;2022-12-18T04:24:56;61.03;;;20.70;;
20861;SDS011;10591;52.532;13.348;2022-12-18T04:27:27;59.00;;;19.70;;
20861;SDS011;10591;52.532;13.348;2022-12-18T04:29:58;59.77;;;20.97;;
20861;SDS011;10591;52.532;13.348;2022-12-18T04:32:28;65.90;;;21.90;;
20861;SDS011;10591;52.532;13.348;2022-12-18T04:35:00;61.63;;;20.90;;
20861;SDS011;10591;52.532;13.348;2022-12-18T04:37:32;62.07;;;20.97;;
20861;SDS011;10591;52.532;13.348;2022-12-18T04:40:06;67.83;;;19.70;;
20861;SDS011;10591;52.532;13.348;2022-12-18T04:42:37;68.17;;;21.87;;
20861;SDS011;10591;52.532;13.348;2022-12-18T04:45:09;65.50;;;21.03;;
20861;SDS011;10591;52.532;13.348;2022-12-18T04:47:41;69.87;;;19.83;;
20861;SDS011;10591;52.532;13.348;2022-12-18T04:50:12;57.97;;;20.13;;
20861;SDS011;10591;52.532;13.348;2022-12-18T04:52:46;55.40;;;17.33;;
20861;SDS011;10591;52.532;13.348;2022-12-18T04:55:17;58.30;;;18.63;;
20861;SDS011;10591;52.532;13.348;2022-12-18T04:57:47;56.80;;;19.87;;
20861;SDS011;10591;52.532;13.348;2022-12-18T05:00:18;63.00;;;21.03;;
20861;SDS011;10591;52.532;13.348;2022-12-18T05:02:49;65.03;;;20.73;;
20861;SDS011;10591;52.532;13.348;2022-12-18T05:05:21;53.73;;;17.83;;
20861;SDS011;10591;52.532;13.348;2022-12-18T05:07:51;66.53;;;19.67;;
20861;SDS011;10591;52.532;13.348;2022-12-18T05:10:22;50.90;;;18.73;;
20861;SDS011;10591;52.532;13.348;2022-12-18T05:12:53;62.60;;;19.80;;
20861;SDS011;10591;52.532;13.348;2022-12-18T05:15:30;72.10;;;20.47;;
20861;SDS011;10591;52.532;13.348;2022-12-18T05:18:02;67.70;;;19.37;;
20861;SDS011;10591;52.532;13.348;2022-12-18T05:20:33;69.53;;;20.20;;
20861;SDS011;10591;52.532;13.348;2022-12-18T05:23:04;58.90;;;18.57;;
20861;SDS011;10591;52.532;13.348;2022-12-18T05:25:37;63.73;;;20.43;;
20861;SDS011;10591;52.532;13.348;2022-12-18T05:28:09;67.37;;;18.57;;
20861;SDS011;10591;52.532;13.348;2022-12-18T05:30:42;57.60;;;19.23;;
20861;SDS011;10591;52.532;13.348;2022-12-18T05:33:19;54.03;;;18.80;;
20861;SDS011;10591;52.532;13.348;2022-12-18T05:35:51;58.73;;;17.33;;
20861;SDS011;10591;52.532;13.348;2022-12-18T05:38:28;54.00;;;16.70;;
20861;SDS011;10591;52.532;13.348;2022-12-18T05:41:02;56.67;;;18.53;;
20861;SDS011;10591;52.532;13.348;2022-12-18T05:43:34;57.90;;;19.37;;
20861;SDS011;10591;52.532;13.348;2022-12-18T05:46:08;54.67;;;18.23;;
20861;SDS011;10591;52.532;13.348;2022-12-18T05:48:42;51.47;;;16.47;;
20861;SDS011;10591;52.532;13.348;2022-12-18T05:51:14;64.20;;;20.10;;
20861;SDS011;10591;52.532;13.348;2022-12-18T05:53:46;54.53;;;18.70;;
20861;SDS011;10591;52.532;13.348;2022-12-18T05:56:19;44.73;;;17.83;;
20861;SDS011;10591;52.532;13.348;2022-12-18T05:58:51;47.57;;;17.30;;
20861;SDS011;10591;52.532;13.348;2022-12-18T06:01:23;55.47;;;17.80;;
20861;SDS011;10591;52.532;13.348;2022-12-18T06:03:56;53.03;;;18.63;;
20861;SDS011;10591;52.532;13.348;2022-12-18T06:06:27;51.03;;;17.70;;
20861;SDS011;10591;52.532;13.348;2022-12-18T06:08:57;53.17;;;16.50;;
20861;SDS011;10591;52.532;13.348;2022-12-18T06:11:30;50.87;;;17.27;;
20861;SDS011;10591;52.532;13.348;2022-12-18T06:14:01;57.50;;;19.73;;
20861;SDS011;10591;52.532;13.348;2022-12-18T06:16:33;46.40;;;16.53;;
20861;SDS011;10591;52.532;13.348;2022-12-18T06:19:05;46.70;;;15.63;;
20861;SDS011;10591;52.532;13.348;2022-12-18T06:21:36;41.60;;;16.23;;
20861;SDS011;10591;52.532;13.348;2022-12-18T06:24:06;56.07;;;20.20;;
20861;SDS011;10591;52.532;13.348;2022-12-18T06:26:41;54.13;;;19.23;;
20861;SDS011;10591;52.532;13.348;2022-12-18T06:29:12;52.00;;;18.60;;
20861;SDS011;10591;52.532;13.348;2022-12-18T06:31:43;53.10;;;18.57;;
20861;SDS011;10591;52.532;13.348;2022-12-18T06:34:15;49.57;;;18.50;;
20861;SDS011;10591;52.532;13.348;2022-12-18T06:36:46;59.47;;;19.13;;
20861;SDS011;10591;52.532;13.348;2022-12-18T06:39:16;48.70;;;16.57;;
20861;SDS011;10591;52.532;13.348;2022-12-18T06:41:48;56.27;;;18.47;;
20861;SDS011;10591;52.532;13.348;2022-12-18T06:44:19;63.47;;;22.43;;
20861;SDS011;10591;52.532;13.348;2022-12-18T06:46:50;63.40;;;20.53;;
20861;SDS011;10591;52.532;13.348;2022-12-18T06:49:21;57.60;;;20.40;;
20861;SDS011;10591;52.532;13.348;2022-12-18T06:51:56;61.27;;;20.50;;
20861;SDS011;10591;52.532;13.348;2022-12-18T06:54:26;57.50;;;19.33;;
20861;SDS011;10591;52.532;13.348;2022-12-18T06:56:58;54.00;;;19.13;;
20861;SDS011;10591;52.532;13.348;2022-12-18T06:59:28;59.37;;;19.60;;
20861;SDS011;10591;52.532;13.348;2022-12-18T07:02:00;53.30;;;19.47;;
20861;SDS011;10591;52.532;13.348;2022-12-18T07:04:31;58.90;;;20.13;;
20861;SDS011;10591;52.532;13.348;2022-12-18T07:07:04;48.77;;;18.47;;
20861;SDS011;10591;52.532;13.348;2022-12-18T07:09:36;53.07;;;18.43;;
20861;SDS011;10591;52.532;13.348;2022-12-18T07:12:06;53.37;;;19.23;;
20861;SDS011;10591;52.532;13.348;2022-12-18T07:14:37;49.00;;;18.53;;
20861;SDS011;10591;52.532;13.348;2022-12-18T07:17:10;47.47;;;18.33;;
20861;SDS011;10591;52.532;13.348;2022-12-18T07:19:42;47.03;;;19.47;;
20861;SDS011;10591;52.532;13.348;2022-12-18T07:22:12;51.97;;;19.43;;
20861;SDS011;10591;52.532;13.348;2022-12-18T07:24:43;44.70;;;17.50;;
20861;SDS011;10591;52.532;13.348;2022-12-18T07:27:16;46.40;;;18.50;;
20861;SDS011;10591;52.532;13.348;2022-12-18T07:29:46;48.60;;;18.67;;
20861;SDS011;10591;52.532;13.348;2022-12-18T07:32:17;44.03;;;15.80;;
20861;SDS011;10591;52.532;13.348;2022-12-18T07:34:48;47.67;;;16.97;;
20861;SDS011;10591;52.532;13.348;2022-12-18T07:37:19;49.00;;;16.50;;
20861;SDS011;10591;52.532;13.348;2022-12-18T07:39:51;51.47;;;17.70;;
20861;SDS011;10591;52.532;13.348;2022-12-18T07:42:22;44.90;;;18.00;;
20861;SDS011;10591;52.532;13.348;2022-12-18T07:45:03;49.57;;;17.20;;
20861;SDS011;10591;52.532;13.348;2022-12-18T07:47:36;49.17;;;17.90;;
20861;SDS011;10591;52.532;13.348;2022-12-18T07:50:06;42.23;;;16.60;;
20861;SDS011;10591;52.532;13.348;2022-12-18T07:52:40;47.07;;;18.43;;
20861;SDS011;10591;52.532;13.348;2022-12-18T07:55:10;50.13;;;17.67;;
20861;SDS011;10591;52.532;13.348;2022-12-18T07:57:43;43.37;;;16.97;;
20861;SDS011;10591;52.532;13.348;2022-12-18T08:00:15;46.87;;;18.30;;
20861;SDS011;10591;52.532;13.348;2022-12-18T08:02:48;43.43;;;17.83;;
20861;SDS011;10591;52.532;13.348;2022-12-18T08:05:20;48.87;;;18.30;;
20861;SDS011;10591;52.532;13.348;2022-12-18T08:07:52;48.53;;;16.87;;
20861;SDS011;10591;52.532;13.348;2022-12-18T08:10:25;51.03;;;17.93;;
20861;SDS011;10591;52.532;13.348;2022-12-18T08:12:57;46.43;;;15.20;;
20861;SDS011;10591;52.532;13.348;2022-12-18T08:15:29;47.47;;;17.37;;
20861;SDS011;10591;52.532;13.348;2022-12-18T08:18:01;51.20;;;17.27;;
20861;SDS011;10591;52.532;13.348;2022-12-18T08:20:32;46.70;;;18.63;;
20861;SDS011;10591;52.532;13.348;2022-12-18T08:23:04;47.60;;;17.73;;
20861;SDS011;10591;52.532;13.348;2022-12-18T08:25:36;47.23;;;16.80;;
20861;SDS011;10591;52.532;13.348;2022-12-18T08:28:07;54.40;;;18.53;;
20861;SDS011;10591;52.532;13.348;2022-12-18T08:30:40;57.53;;;19.50;;
20861;SDS011;10591;52.532;13.348;2022-12-18T08:33:11;53.47;;;18.27;;
20861;SDS011;10591;52.532;13.348;2022-12-18T08:35:42;39.43;;;15.13;;
20861;SDS011;10591;52.532;13.348;2022-12-18T08:38:15;45.70;;;16.13;;
20861;SDS011;10591;52.532;13.348;2022-12-18T08:40:47;40.73;;;16.87;;
20861;SDS011;10591;52.532;13.348;2022-12-18T08:43:18;42.47;;;16.43;;
20861;SDS011;10591;52.532;13.348;2022-12-18T08:46:07;60.93;;;19.63;;
20861;SDS011;10591;52.532;13.348;2022-12-18T08:48:39;38.90;;;16.03;;
20861;SDS011;10591;52.532;13.348;2022-12-18T08:51:10;41.63;;;16.47;;
20861;SDS011;10591;52.532;13.348;2022-12-18T08:53:43;40.60;;;15.43;;
20861;SDS011;10591;52.532;13.348;2022-12-18T08:56:19;44.13;;;16.27;;
20861;SDS011;10591;52.532;13.348;2022-12-18T08:58:52;50.67;;;18.17;;
20861;SDS011;10591;52.532;13.348;2022-12-18T09:01:24;39.90;;;15.90;;
20861;SDS011;10591;52.532;13.348;2022-12-18T09:03:57;47.00;;;16.77;;
20861;SDS011;10591;52.532;13.348;2022-12-18T09:06:30;41.83;;;16.07;;
20861;SDS011;10591;52.532;13.348;2022-12-18T09:09:06;44.23;;;16.73;;
20861;SDS011;10591;52.532;13.348;2022-12-18T09:11:35;43.10;;;16.93;;
20861;SDS011;10591;52.532;13.348;2022-12-18T09:14:06;44.57;;;16.87;;
20861;SDS011;10591;52.532;13.348;2022-12-18T09:16:38;43.20;;;17.43;;
20861;SDS011;10591;52.532;13.348;2022-12-18T09:19:10;45.97;;;16.97;;
20861;SDS011;10591;52.532;13.348;2022-12-18T09:21:40;41.53;;;16.67;;
20861;SDS011;10591;52.532;13.348;2022-12-18T09:24:13;41.60;;;14.80;;
20861;SDS011;10591;52.532;13.348;2022-12-18T09:26:45;46.13;;;16.70;;
20861;SDS011;10591;52.532;13.348;2022-12-18T09:29:18;25.97;;;12.23;;
20861;SDS011;10591;52.532;13.348;2022-12-18T09:31:49;39.23;;;16.10;;
20861;SDS011;10591;52.532;13.348;2022-12-18T09:34:20;34.47;;;16.23;;
20861;SDS011;10591;52.532;13.348;2022-12-18T09:36:50;40.87;;;17.63;;
20861;SDS011;10591;52.532;13.348;2022-12-18T09:39:23;34.97;;;15.07;;
20861;SDS011;10591;52.532;13.348;2022-12-18T09:41:54;39.67;;;14.67;;
20861;SDS011;10591;52.532;13.348;2022-12-18T09:44:32;37.67;;;15.33;;
20861;SDS011;10591;52.532;13.348;2022-12-18T09:49:48;46.63;;;17.20;;
20861;SDS011;10591;52.532;13.348;2022-12-18T09:52:32;34.93;;;15.13;;
20861;SDS011;10591;52.532;13.348;2022-12-18T09:55:30;42.27;;;16.37;;
20861;SDS011;10591;52.532;13.348;2022-12-18T09:58:11;42.70;;;16.27;;
20861;SDS011;10591;52.532;13.348;2022-12-18T10:00:47;45.10;;;17.47;;
20861;SDS011;10591;52.532;13.348;2022-12-18T10:03:21;39.07;;;16.10;;
20861;SDS011;10591;52.532;13.348;2022-12-18T10:08:37;39.70;;;16.40;;
20861;SDS011;10591;52.532;13.348;2022-12-18T10:14:21;37.43;;;15.23;;
20861;SDS011;10591;52.532;13.348;2022-12-18T10:16:58;35.63;;;15.23;;
20861;SDS011;10591;52.532;13.348;2022-12-18T10:19:35;38.73;;;16.43;;
20861;SDS011;10591;52.532;13.348;2022-12-18T10:22:16;41.67;;;16.67;;
20861;SDS011;10591;52.532;13.348;2022-12-18T10:24:57;38.10;;;15.67;;
20861;SDS011;10591;52.532;13.348;2022-12-18T10:27:28;33.33;;;15.30;;
20861;SDS011;10591;52.532;13.348;2022-12-18T10:30:07;40.97;;;16.30;;
20861;SDS011;10591;52.532;13.348;2022-12-18T10:32:41;43.97;;;18.07;;
20861;SDS011;10591;52.532;13.348;2022-12-18T10:35:20;43.17;;;17.43;;
20861;SDS011;10591;52.532;13.348;2022-12-18T10:38:03;45.50;;;16.93;;
20861;SDS011;10591;52.532;13.348;2022-12-18T10:40:58;38.43;;;15.03;;
20861;SDS011;10591;52.532;13.348;2022-12-18T10:43:29;44.80;;;17.63;;
20861;SDS011;10591;52.532;13.348;2022-12-18T10:48:53;42.10;;;17.47;;
20861;SDS011;10591;52.532;13.348;2022-12-18T10:51:25;43.17;;;16.77;;
20861;SDS011;10591;52.532;13.348;2022-12-18T10:56:48;43.90;;;17.73;;
20861;SDS011;10591;52.532;13.348;2022-12-18T10:59:22;42.73;;;18.57;;
20861;SDS011;10591;52.532;13.348;2022-12-18T11:01:57;41.33;;;17.50;;
20861;SDS011;10591;52.532;13.348;2022-12-18T11:04:30;38.57;;;18.13;;
20861;SDS011;10591;52.532;13.348;2022-12-18T11:07:04;43.20;;;16.73;;
20861;SDS011;10591;52.532;13.348;2022-12-18T11:09:39;46.43;;;17.83;;
20861;SDS011;10591;52.532;13.348;2022-12-18T11:12:17;47.47;;;18.23;;
20861;SDS011;10591;52.532;13.348;2022-12-18T11:14:51;47.83;;;16.60;;
20861;SDS011;10591;52.532;13.348;2022-12-18T11:17:32;41.47;;;16.87;;
20861;SDS011;10591;52.532;13.348;2022-12-18T11:20:20;41.77;;;17.60;;
20861;SDS011;10591;52.532;13.348;2022-12-18T11:22:54;47.00;;;18.53;;
20861;SDS011;10591;52.532;13.348;2022-12-18T11:25:29;49.63;;;18.17;;
20861;SDS011;10591;52.532;13.348;2022-12-18T11:28:05;35.17;;;15.10;;
20861;SDS011;10591;52.532;13.348;2022-12-18T11:36:57;42.37;;;16.60;;
20861;SDS011;10591;52.532;13.348;2022-12-18T11:39:37;42.97;;;17.43;;
20861;SDS011;10591;52.532;13.348;2022-12-18T11:42:24;44.80;;;17.73;;
20861;SDS011;10591;52.532;13.348;2022-12-18T11:45:46;47.13;;;17.50;;
20861;SDS011;10591;52.532;13.348;2022-12-18T11:48:03;44.27;;;16.90;;
20861;SDS011;10591;52.532;13.348;2022-12-18T11:50:55;40.80;;;16.93;;
20861;SDS011;10591;52.532;13.348;2022-12-18T11:53:20;42.97;;;16.67;;
20861;SDS011;10591;52.532;13.348;2022-12-18T11:59:04;40.13;;;17.20;;
20861;SDS011;10591;52.532;13.348;2022-12-18T12:01:58;35.77;;;14.37;;
20861;SDS011;10591;52.532;13.348;2022-12-18T12:09:51;26.53;;;12.10;;
20861;SDS011;10591;52.532;13.348;2022-12-18T12:12:35;35.67;;;16.33;;
20861;SDS011;10591;52.532;13.348;2022-12-18T12:18:06;40.20;;;17.37;;
20861;SDS011;10591;52.532;13.348;2022-12-18T12:23:26;35.47;;;14.23;;
20861;SDS011;10591;52.532;13.348;2022-12-18T12:31:32;36.30;;;16.20;;
20861;SDS011;10591;52.532;13.348;2022-12-18T12:34:15;34.57;;;14.87;;
20861;SDS011;10591;52.532;13.348;2022-12-18T12:36:59;40.80;;;17.13;;
20861;SDS011;10591;52.532;13.348;2022-12-18T12:39:30;35.50;;;15.53;;
20861;SDS011;10591;52.532;13.348;2022-12-18T12:42:10;36.67;;;15.43;;
20861;SDS011;10591;52.532;13.348;2022-12-18T12:44:59;35.50;;;16.83;;
20861;SDS011;10591;52.532;13.348;2022-12-18T12:47:34;43.07;;;16.27;;
20861;SDS011;10591;52.532;13.348;2022-12-18T12:50:14;37.03;;;15.80;;
20861;SDS011;10591;52.532;13.348;2022-12-18T12:52:51;39.77;;;17.63;;
20861;SDS011;10591;52.532;13.348;2022-12-18T12:55:24;37.10;;;15.90;;
20861;SDS011;10591;52.532;13.348;2022-12-18T13:00:50;29.50;;;15.33;;
20861;SDS011;10591;52.532;13.348;2022-12-18T13:05:52;34.07;;;14.07;;
20861;SDS011;10591;52.532;13.348;2022-12-18T13:08:27;43.47;;;17.23;;
20861;SDS011;10591;52.532;13.348;2022-12-18T13:11:01;36.03;;;16.13;;
20861;SDS011;10591;52.532;13.348;2022-12-18T13:13:53;35.07;;;15.30;;
20861;SDS011;10591;52.532;13.348;2022-12-18T13:16:26;38.37;;;16.07;;
20861;SDS011;10591;52.532;13.348;2022-12-18T13:18:57;37.67;;;16.80;;
20861;SDS011;10591;52.532;13.348;2022-12-18T13:21:29;39.00;;;16.93;;
20861;SDS011;10591;52.532;13.348;2022-12-18T13:24:15;27.77;;;12.70;;
20861;SDS011;10591;52.532;13.348;2022-12-18T13:26:55;38.73;;;16.03;;
20861;SDS011;10591;52.532;13.348;2022-12-18T13:29:42;43.37;;;17.33;;
20861;SDS011;10591;52.532;13.348;2022-12-18T13:32:19;32.70;;;15.87;;
20861;SDS011;10591;52.532;13.348;2022-12-18T13:37:53;35.57;;;16.30;;
20861;SDS011;10591;52.532;13.348;2022-12-18T13:40:49;35.67;;;17.63;;
20861;SDS011;10591;52.532;13.348;2022-12-18T13:49:00;29.97;;;15.13;;
20861;SDS011;10591;52.532;13.348;2022-12-18T13:51:34;29.73;;;13.80;;
20861;SDS011;10591;52.532;13.348;2022-12-18T13:54:10;36.70;;;17.03;;
20861;SDS011;10591;52.532;13.348;2022-12-18T13:56:45;33.27;;;15.87;;
20861;SDS011;10591;52.532;13.348;2022-12-18T13:59:36;42.83;;;18.63;;
20861;SDS011;10591;52.532;13.348;2022-12-18T14:02:16;29.73;;;14.47;;
20861;SDS011;10591;52.532;13.348;2022-12-18T14:04:50;33.33;;;16.90;;
20861;SDS011;10591;52.532;13.348;2022-12-18T14:07:22;35.97;;;17.00;;
20861;SDS011;10591;52.532;13.348;2022-12-18T14:09:59;35.90;;;17.60;;
20861;SDS011;10591;52.532;13.348;2022-12-18T14:12:35;39.20;;;18.30;;
20861;SDS011;10591;52.532;13.348;2022-12-18T14:15:31;32.80;;;15.87;;
20861;SDS011;10591;52.532;13.348;2022-12-18T14:20:59;34.63;;;16.73;;
20861;SDS011;10591;52.532;13.348;2022-12-18T14:29:18;35.53;;;16.30;;
20861;SDS011;10591;52.532;13.348;2022-12-18T14:32:14;32.70;;;15.73;;
20861;SDS011;10591;52.532;13.348;2022-12-18T14:34:48;39.93;;;18.53;;
20861;SDS011;10591;52.532;13.348;2022-12-18T14:37:27;39.13;;;18.77;;
20861;SDS011;10591;52.532;13.348;2022-12-18T14:39:59;40.53;;;20.30;;
20861;SDS011;10591;52.532;13.348;2022-12-18T14:42:37;32.73;;;15.90;;
20861;SDS011;10591;52.532;13.348;2022-12-18T14:48:12;43.83;;;21.07;;
20861;SDS011;10591;52.532;13.348;2022-12-18T14:50:44;43.80;;;20.00;;
20861;SDS011;10591;52.532;13.348;2022-12-18T14:53:26;41.83;;;21.03;;
20861;SDS011;10591;52.532;13.348;2022-12-18T14:55:55;40.10;;;19.93;;
20861;SDS011;10591;52.532;13.348;2022-12-18T14:58:26;37.47;;;19.13;;
20861;SDS011;10591;52.532;13.348;2022-12-18T15:01:01;41.20;;;20.73;;
20861;SDS011;10591;52.532;13.348;2022-12-18T15:03:33;38.23;;;19.93;;
20861;SDS011;10591;52.532;13.348;2022-12-18T15:06:29;42.33;;;19.87;;
20861;SDS011;10591;52.532;13.348;2022-12-18T15:08:47;38.17;;;20.53;;
20861;SDS011;10591;52.532;13.348;2022-12-18T15:17:14;29.23;;;14.97;;
20861;SDS011;10591;52.532;13.348;2022-12-18T15:19:47;31.00;;;17.40;;
20861;SDS011;10591;52.532;13.348;2022-12-18T15:22:30;30.93;;;15.87;;
20861;SDS011;10591;52.532;13.348;2022-12-18T15:25:20;31.77;;;15.93;;
20861;SDS011;10591;52.532;13.348;2022-12-18T15:27:40;25.77;;;12.70;;
20861;SDS011;10591;52.532;13.348;2022-12-18T15:33:16;30.43;;;13.73;;
20861;SDS011;10591;52.532;13.348;2022-12-18T15:35:45;29.17;;;13.53;;
20861;SDS011;10591;52.532;13.348;2022-12-18T15:38:17;33.30;;;16.40;;
20861;SDS011;10591;52.532;13.348;2022-12-18T15:40:53;31.53;;;16.20;;
20861;SDS011;10591;52.532;13.348;2022-12-18T15:43:32;31.13;;;15.73;;
20861;SDS011;10591;52.532;13.348;2022-12-18T15:46:09;32.23;;;16.27;;
20861;SDS011;10591;52.532;13.348;2022-12-18T15:48:42;30.27;;;14.87;;
20861;SDS011;10591;52.532;13.348;2022-12-18T15:51:17;24.67;;;14.20;;
20861;SDS011;10591;52.532;13.348;2022-12-18T15:53:51;25.67;;;13.63;;
20861;SDS011;10591;52.532;13.348;2022-12-18T15:56:28;25.47;;;13.33;;
20861;SDS011;10591;52.532;13.348;2022-12-18T15:59:19;27.37;;;12.30;;
20861;SDS011;10591;52.532;13.348;2022-12-18T16:01:52;26.23;;;13.43;;
20861;SDS011;10591;52.532;13.348;2022-12-18T16:04:27;32.07;;;14.80;;
20861;SDS011;10591;52.532;13.348;2022-12-18T16:07:00;29.87;;;14.90;;
20861;SDS011;10591;52.532;13.348;2022-12-18T16:09:36;32.63;;;16.03;;
20861;SDS011;10591;52.532;13.348;2022-12-18T16:12:15;31.27;;;16.03;;
20861;SDS011;10591;52.532;13.348;2022-12-18T16:14:54;29.17;;;14.90;;
20861;SDS011;10591;52.532;13.348;2022-12-18T16:17:24;31.50;;;15.50;;
20861;SDS011;10591;52.532;13.348;2022-12-18T16:19:58;29.13;;;15.23;;
20861;SDS011;10591;52.532;13.348;2022-12-18T16:22:31;33.73;;;17.17;;
20861;SDS011;10591;52.532;13.348;2022-12-18T16:25:02;37.40;;;16.43;;